sensor_id;sensor_type;location;lat;lon;timestamp;P1;durP1;ratioP1;P2;durP2;ratioP2
6566;SDS011;3317;43.994;22.878;2022-08-07T00:17:38;8.93;;;7.07;;
6566;SDS011;3317;43.994;22.878;2022-08-07T00:20:05;7.63;;;6.77;;
6566;SDS011;3317;43.994;22.878;2022-08-07T00:22:33;8.43;;;6.97;;
6566;SDS011;3317;43.994;22.878;2022-08-07T00:25:06;10.60;;;7.93;;
6566;SDS011;3317;43.994;22.878;2022-08-07T00:27:33;12.40;;;7.43;;
6566;SDS011;3317;43.994;22.878;2022-08-07T00:30:01;12.73;;;7.23;;
6566;SDS011;3317;43.994;22.878;2022-08-07T00:32:29;8.50;;;7.63;;
6566;SDS011;3317;43.994;22.878;2022-08-07T00:34:57;13.40;;;8.40;;
6566;SDS011;3317;43.994;22.878;2022-08-07T00:37:24;10.70;;;8.10;;
6566;SDS011;3317;43.994;22.878;2022-08-07T00:39:51;11.80;;;8.80;;
6566;SDS011;3317;43.994;22.878;2022-08-07T00:42:19;12.90;;;8.60;;
6566;SDS011;3317;43.994;22.878;2022-08-07T00:44:58;14.63;;;9.60;;
6566;SDS011;3317;43.994;22.878;2022-08-07T00:50:55;14.10;;;9.03;;
6566;SDS011;3317;43.994;22.878;2022-08-07T00:53:22;13.30;;;8.97;;
6566;SDS011;3317;43.994;22.878;2022-08-07T00:55:49;12.37;;;8.90;;
6566;SDS011;3317;43.994;22.878;2022-08-07T01:05:05;11.77;;;9.00;;
6566;SDS011;3317;43.994;22.878;2022-08-07T01:10:15;12.20;;;8.97;;
6566;SDS011;3317;43.994;22.878;2022-08-07T01:12:43;9.20;;;7.87;;
6566;SDS011;3317;43.994;22.878;2022-08-07T01:15:10;13.33;;;8.60;;
6566;SDS011;3317;43.994;22.878;2022-08-07T01:17:38;12.13;;;8.97;;
6566;SDS011;3317;43.994;22.878;2022-08-07T01:20:09;10.50;;;7.80;;
6566;SDS011;3317;43.994;22.878;2022-08-07T01:22:39;12.10;;;8.00;;
6566;SDS011;3317;43.994;22.878;2022-08-07T01:25:07;13.07;;;7.77;;
6566;SDS011;3317;43.994;22.878;2022-08-07T01:31:00;11.43;;;7.90;;
6566;SDS011;3317;43.994;22.878;2022-08-07T01:33:28;9.50;;;8.53;;
6566;SDS011;3317;43.994;22.878;2022-08-07T01:35:56;12.40;;;8.30;;
6566;SDS011;3317;43.994;22.878;2022-08-07T01:38:25;12.33;;;8.30;;
6566;SDS011;3317;43.994;22.878;2022-08-07T01:40:56;9.83;;;8.83;;
6566;SDS011;3317;43.994;22.878;2022-08-07T01:43:26;11.03;;;8.87;;
6566;SDS011;3317;43.994;22.878;2022-08-07T01:45:57;10.20;;;8.30;;
6566;SDS011;3317;43.994;22.878;2022-08-07T01:48:27;10.47;;;8.30;;
6566;SDS011;3317;43.994;22.878;2022-08-07T01:50:57;12.07;;;8.67;;
6566;SDS011;3317;43.994;22.878;2022-08-07T01:53:32;10.10;;;7.97;;
6566;SDS011;3317;43.994;22.878;2022-08-07T01:56:05;9.60;;;8.60;;
6566;SDS011;3317;43.994;22.878;2022-08-07T01:58:57;10.50;;;8.47;;
6566;SDS011;3317;43.994;22.878;2022-08-07T02:01:30;8.67;;;7.77;;
6566;SDS011;3317;43.994;22.878;2022-08-07T02:04:04;9.10;;;7.63;;
6566;SDS011;3317;43.994;22.878;2022-08-07T02:06:37;13.17;;;7.73;;
6566;SDS011;3317;43.994;22.878;2022-08-07T02:09:08;11.00;;;8.50;;
6566;SDS011;3317;43.994;22.878;2022-08-07T02:11:41;9.13;;;8.10;;
6566;SDS011;3317;43.994;22.878;2022-08-07T02:14:11;11.53;;;8.00;;
6566;SDS011;3317;43.994;22.878;2022-08-07T02:16:41;12.83;;;8.00;;
6566;SDS011;3317;43.994;22.878;2022-08-07T02:19:10;10.70;;;7.67;;
6566;SDS011;3317;43.994;22.878;2022-08-07T02:21:41;9.03;;;8.07;;
6566;SDS011;3317;43.994;22.878;2022-08-07T02:24:11;10.20;;;8.33;;
6566;SDS011;3317;43.994;22.878;2022-08-07T02:26:41;10.20;;;7.70;;
6566;SDS011;3317;43.994;22.878;2022-08-07T02:29:26;9.47;;;8.47;;
6566;SDS011;3317;43.994;22.878;2022-08-07T02:31:54;7.07;;;6.37;;
6566;SDS011;3317;43.994;22.878;2022-08-07T02:34:22;8.47;;;7.43;;
6566;SDS011;3317;43.994;22.878;2022-08-07T02:36:49;9.70;;;8.30;;
6566;SDS011;3317;43.994;22.878;2022-08-07T02:39:18;8.40;;;7.17;;
6566;SDS011;3317;43.994;22.878;2022-08-07T02:41:46;14.50;;;8.10;;
6566;SDS011;3317;43.994;22.878;2022-08-07T02:44:14;11.20;;;8.67;;
6566;SDS011;3317;43.994;22.878;2022-08-07T02:46:42;8.43;;;7.60;;
6566;SDS011;3317;43.994;22.878;2022-08-07T02:49:12;11.83;;;8.50;;
6566;SDS011;3317;43.994;22.878;2022-08-07T02:51:39;9.00;;;8.10;;
6566;SDS011;3317;43.994;22.878;2022-08-07T02:54:09;8.67;;;7.50;;
6566;SDS011;3317;43.994;22.878;2022-08-07T02:56:40;8.67;;;7.67;;
6566;SDS011;3317;43.994;22.878;2022-08-07T02:59:09;12.50;;;8.47;;
6566;SDS011;3317;43.994;22.878;2022-08-07T03:01:40;11.63;;;8.50;;
6566;SDS011;3317;43.994;22.878;2022-08-07T03:04:09;14.13;;;8.23;;
6566;SDS011;3317;43.994;22.878;2022-08-07T03:06:38;16.00;;;9.20;;
6566;SDS011;3317;43.994;22.878;2022-08-07T03:09:06;9.80;;;8.30;;
6566;SDS011;3317;43.994;22.878;2022-08-07T03:11:34;10.20;;;8.23;;
6566;SDS011;3317;43.994;22.878;2022-08-07T03:14:04;15.77;;;8.47;;
6566;SDS011;3317;43.994;22.878;2022-08-07T03:16:32;9.50;;;8.50;;
6566;SDS011;3317;43.994;22.878;2022-08-07T03:19:00;10.23;;;8.20;;
6566;SDS011;3317;43.994;22.878;2022-08-07T03:21:27;7.50;;;6.77;;
6566;SDS011;3317;43.994;22.878;2022-08-07T03:23:56;7.87;;;7.07;;
6566;SDS011;3317;43.994;22.878;2022-08-07T03:26:25;10.10;;;8.53;;
6566;SDS011;3317;43.994;22.878;2022-08-07T03:28:56;15.47;;;9.30;;
6566;SDS011;3317;43.994;22.878;2022-08-07T03:31:27;19.20;;;9.63;;
6566;SDS011;3317;43.994;22.878;2022-08-07T03:33:56;14.30;;;9.40;;
6566;SDS011;3317;43.994;22.878;2022-08-07T03:36:25;12.43;;;8.70;;
6566;SDS011;3317;43.994;22.878;2022-08-07T03:38:55;9.93;;;8.70;;
6566;SDS011;3317;43.994;22.878;2022-08-07T03:41:27;12.70;;;9.67;;
6566;SDS011;3317;43.994;22.878;2022-08-07T03:43:56;12.53;;;9.40;;
6566;SDS011;3317;43.994;22.878;2022-08-07T03:46:23;13.93;;;9.53;;
6566;SDS011;3317;43.994;22.878;2022-08-07T03:48:53;10.83;;;8.73;;
6566;SDS011;3317;43.994;22.878;2022-08-07T03:51:20;13.50;;;9.20;;
6566;SDS011;3317;43.994;22.878;2022-08-07T03:53:48;9.23;;;7.90;;
6566;SDS011;3317;43.994;22.878;2022-08-07T03:56:17;12.97;;;9.10;;
6566;SDS011;3317;43.994;22.878;2022-08-07T03:58:46;11.90;;;8.47;;
6566;SDS011;3317;43.994;22.878;2022-08-07T04:01:13;10.00;;;8.20;;
6566;SDS011;3317;43.994;22.878;2022-08-07T04:03:41;12.60;;;8.90;;
6566;SDS011;3317;43.994;22.878;2022-08-07T04:06:10;9.30;;;7.77;;
6566;SDS011;3317;43.994;22.878;2022-08-07T04:08:38;9.40;;;7.83;;
6566;SDS011;3317;43.994;22.878;2022-08-07T04:11:06;10.03;;;7.97;;
6566;SDS011;3317;43.994;22.878;2022-08-07T04:13:33;9.80;;;8.20;;
6566;SDS011;3317;43.994;22.878;2022-08-07T04:16:01;9.50;;;7.93;;
6566;SDS011;3317;43.994;22.878;2022-08-07T04:18:29;8.93;;;7.23;;
6566;SDS011;3317;43.994;22.878;2022-08-07T04:20:57;8.13;;;7.33;;
6566;SDS011;3317;43.994;22.878;2022-08-07T04:23:26;12.47;;;8.00;;
6566;SDS011;3317;43.994;22.878;2022-08-07T04:25:53;10.80;;;7.40;;
6566;SDS011;3317;43.994;22.878;2022-08-07T04:28:22;11.30;;;7.27;;
6566;SDS011;3317;43.994;22.878;2022-08-07T04:30:51;10.50;;;8.20;;
6566;SDS011;3317;43.994;22.878;2022-08-07T04:33:18;13.33;;;8.87;;
6566;SDS011;3317;43.994;22.878;2022-08-07T04:35:45;12.23;;;9.67;;
6566;SDS011;3317;43.994;22.878;2022-08-07T04:38:12;12.53;;;8.70;;
6566;SDS011;3317;43.994;22.878;2022-08-07T04:40:45;13.03;;;9.73;;
6566;SDS011;3317;43.994;22.878;2022-08-07T04:43:13;10.07;;;8.60;;
6566;SDS011;3317;43.994;22.878;2022-08-07T04:45:44;14.30;;;7.80;;
6566;SDS011;3317;43.994;22.878;2022-08-07T04:48:19;9.80;;;8.40;;
6566;SDS011;3317;43.994;22.878;2022-08-07T04:50:55;9.07;;;8.17;;
6566;SDS011;3317;43.994;22.878;2022-08-07T04:53:32;10.70;;;8.70;;
6566;SDS011;3317;43.994;22.878;2022-08-07T04:56:08;10.83;;;9.00;;
6566;SDS011;3317;43.994;22.878;2022-08-07T04:58:42;10.93;;;9.83;;
6566;SDS011;3317;43.994;22.878;2022-08-07T05:01:13;11.00;;;9.73;;
6566;SDS011;3317;43.994;22.878;2022-08-07T05:03:46;13.63;;;10.63;;
6566;SDS011;3317;43.994;22.878;2022-08-07T05:06:21;13.33;;;11.97;;
6566;SDS011;3317;43.994;22.878;2022-08-07T05:08:55;12.10;;;10.90;;
6566;SDS011;3317;43.994;22.878;2022-08-07T05:11:29;12.60;;;9.53;;
6566;SDS011;3317;43.994;22.878;2022-08-07T05:14:00;10.80;;;9.27;;
6566;SDS011;3317;43.994;22.878;2022-08-07T05:16:32;10.30;;;8.80;;
6566;SDS011;3317;43.994;22.878;2022-08-07T05:19:04;9.43;;;8.43;;
6566;SDS011;3317;43.994;22.878;2022-08-07T05:21:37;12.07;;;9.10;;
6566;SDS011;3317;43.994;22.878;2022-08-07T05:24:10;13.20;;;8.87;;
6566;SDS011;3317;43.994;22.878;2022-08-07T05:26:44;8.10;;;7.30;;
6566;SDS011;3317;43.994;22.878;2022-08-07T05:29:14;11.13;;;9.20;;
6566;SDS011;3317;43.994;22.878;2022-08-07T05:31:43;9.40;;;7.60;;
6566;SDS011;3317;43.994;22.878;2022-08-07T05:34:13;11.27;;;10.07;;
6566;SDS011;3317;43.994;22.878;2022-08-07T05:36:42;9.40;;;8.40;;
6566;SDS011;3317;43.994;22.878;2022-08-07T05:39:12;7.43;;;6.63;;
6566;SDS011;3317;43.994;22.878;2022-08-07T05:41:40;8.93;;;7.80;;
6566;SDS011;3317;43.994;22.878;2022-08-07T05:44:09;9.63;;;7.90;;
6566;SDS011;3317;43.994;22.878;2022-08-07T05:46:38;12.23;;;9.17;;
6566;SDS011;3317;43.994;22.878;2022-08-07T05:49:07;10.80;;;8.77;;
6566;SDS011;3317;43.994;22.878;2022-08-07T05:51:35;10.40;;;8.80;;
6566;SDS011;3317;43.994;22.878;2022-08-07T05:54:03;13.43;;;9.73;;
6566;SDS011;3317;43.994;22.878;2022-08-07T05:56:30;12.00;;;10.20;;
6566;SDS011;3317;43.994;22.878;2022-08-07T05:59:00;14.20;;;10.77;;
6566;SDS011;3317;43.994;22.878;2022-08-07T06:01:30;14.70;;;10.80;;
6566;SDS011;3317;43.994;22.878;2022-08-07T06:03:59;13.87;;;10.93;;
6566;SDS011;3317;43.994;22.878;2022-08-07T06:06:30;14.80;;;11.00;;
6566;SDS011;3317;43.994;22.878;2022-08-07T06:08:59;15.67;;;10.43;;
6566;SDS011;3317;43.994;22.878;2022-08-07T06:11:27;13.40;;;10.73;;
6566;SDS011;3317;43.994;22.878;2022-08-07T06:13:55;16.80;;;11.23;;
6566;SDS011;3317;43.994;22.878;2022-08-07T06:16:22;9.70;;;8.53;;
6566;SDS011;3317;43.994;22.878;2022-08-07T06:18:54;10.63;;;9.53;;
6566;SDS011;3317;43.994;22.878;2022-08-07T06:21:23;10.87;;;9.47;;
6566;SDS011;3317;43.994;22.878;2022-08-07T06:23:50;12.40;;;10.27;;
6566;SDS011;3317;43.994;22.878;2022-08-07T06:26:17;12.13;;;10.70;;
6566;SDS011;3317;43.994;22.878;2022-08-07T06:28:52;12.47;;;10.10;;
6566;SDS011;3317;43.994;22.878;2022-08-07T06:31:21;12.07;;;10.20;;
6566;SDS011;3317;43.994;22.878;2022-08-07T06:33:48;14.67;;;10.30;;
6566;SDS011;3317;43.994;22.878;2022-08-07T06:36:16;12.53;;;9.77;;
6566;SDS011;3317;43.994;22.878;2022-08-07T06:38:43;11.40;;;9.17;;
6566;SDS011;3317;43.994;22.878;2022-08-07T06:41:15;10.73;;;9.13;;
6566;SDS011;3317;43.994;22.878;2022-08-07T06:43:46;10.97;;;8.90;;
6566;SDS011;3317;43.994;22.878;2022-08-07T06:46:14;12.57;;;9.17;;
6566;SDS011;3317;43.994;22.878;2022-08-07T06:48:42;11.23;;;8.40;;
6566;SDS011;3317;43.994;22.878;2022-08-07T06:51:09;10.50;;;8.80;;
6566;SDS011;3317;43.994;22.878;2022-08-07T06:53:43;9.67;;;8.30;;
6566;SDS011;3317;43.994;22.878;2022-08-07T06:56:12;14.73;;;8.93;;
6566;SDS011;3317;43.994;22.878;2022-08-07T06:58:41;10.50;;;8.43;;
6566;SDS011;3317;43.994;22.878;2022-08-07T07:01:09;10.40;;;8.80;;
6566;SDS011;3317;43.994;22.878;2022-08-07T07:03:40;9.93;;;7.80;;
6566;SDS011;3317;43.994;22.878;2022-08-07T07:06:09;12.40;;;7.87;;
6566;SDS011;3317;43.994;22.878;2022-08-07T07:08:36;10.00;;;8.17;;
6566;SDS011;3317;43.994;22.878;2022-08-07T07:11:05;8.80;;;7.83;;
6566;SDS011;3317;43.994;22.878;2022-08-07T07:13:33;11.13;;;8.07;;
6566;SDS011;3317;43.994;22.878;2022-08-07T07:16:05;8.47;;;6.97;;
6566;SDS011;3317;43.994;22.878;2022-08-07T07:18:36;7.23;;;6.53;;
6566;SDS011;3317;43.994;22.878;2022-08-07T07:21:09;10.80;;;7.40;;
6566;SDS011;3317;43.994;22.878;2022-08-07T07:23:39;10.60;;;7.83;;
6566;SDS011;3317;43.994;22.878;2022-08-07T07:26:16;11.53;;;8.23;;
6566;SDS011;3317;43.994;22.878;2022-08-07T07:28:46;11.03;;;7.50;;
6566;SDS011;3317;43.994;22.878;2022-08-07T07:31:18;11.10;;;7.63;;
6566;SDS011;3317;43.994;22.878;2022-08-07T07:33:49;11.67;;;8.03;;
6566;SDS011;3317;43.994;22.878;2022-08-07T07:36:20;8.73;;;7.73;;
6566;SDS011;3317;43.994;22.878;2022-08-07T07:38:49;8.50;;;7.63;;
6566;SDS011;3317;43.994;22.878;2022-08-07T07:41:22;9.40;;;7.67;;
6566;SDS011;3317;43.994;22.878;2022-08-07T07:43:52;8.40;;;7.60;;
6566;SDS011;3317;43.994;22.878;2022-08-07T07:46:21;10.50;;;7.07;;
6566;SDS011;3317;43.994;22.878;2022-08-07T07:48:49;8.50;;;7.10;;
6566;SDS011;3317;43.994;22.878;2022-08-07T07:51:18;7.83;;;6.97;;
6566;SDS011;3317;43.994;22.878;2022-08-07T07:53:47;7.77;;;7.00;;
6566;SDS011;3317;43.994;22.878;2022-08-07T07:56:15;9.50;;;7.47;;
6566;SDS011;3317;43.994;22.878;2022-08-07T07:58:45;11.37;;;7.67;;
6566;SDS011;3317;43.994;22.878;2022-08-07T08:01:13;12.17;;;10.77;;
6566;SDS011;3317;43.994;22.878;2022-08-07T08:03:48;8.70;;;7.10;;
6566;SDS011;3317;43.994;22.878;2022-08-07T08:06:16;8.00;;;7.20;;
6566;SDS011;3317;43.994;22.878;2022-08-07T08:08:46;8.57;;;7.60;;
6566;SDS011;3317;43.994;22.878;2022-08-07T08:11:16;8.50;;;7.70;;
6566;SDS011;3317;43.994;22.878;2022-08-07T08:13:48;9.53;;;7.03;;
6566;SDS011;3317;43.994;22.878;2022-08-07T08:16:16;10.63;;;7.43;;
6566;SDS011;3317;43.994;22.878;2022-08-07T08:18:47;8.03;;;7.20;;
6566;SDS011;3317;43.994;22.878;2022-08-07T08:21:16;7.43;;;6.73;;
6566;SDS011;3317;43.994;22.878;2022-08-07T08:24:01;8.27;;;7.10;;
6566;SDS011;3317;43.994;22.878;2022-08-07T08:26:59;7.17;;;6.47;;
6566;SDS011;3317;43.994;22.878;2022-08-07T08:29:39;6.53;;;5.90;;
6566;SDS011;3317;43.994;22.878;2022-08-07T08:32:08;7.10;;;6.40;;
6566;SDS011;3317;43.994;22.878;2022-08-07T08:34:38;11.80;;;7.80;;
6566;SDS011;3317;43.994;22.878;2022-08-07T08:37:09;8.17;;;7.20;;
6566;SDS011;3317;43.994;22.878;2022-08-07T08:39:38;9.17;;;7.60;;
6566;SDS011;3317;43.994;22.878;2022-08-07T08:42:10;8.50;;;7.70;;
6566;SDS011;3317;43.994;22.878;2022-08-07T08:44:47;8.53;;;7.43;;
6566;SDS011;3317;43.994;22.878;2022-08-07T08:47:24;7.63;;;6.83;;
6566;SDS011;3317;43.994;22.878;2022-08-07T08:50:00;9.67;;;8.67;;
6566;SDS011;3317;43.994;22.878;2022-08-07T08:52:38;9.57;;;8.00;;
6566;SDS011;3317;43.994;22.878;2022-08-07T08:55:26;10.30;;;7.90;;
6566;SDS011;3317;43.994;22.878;2022-08-07T08:58:04;7.90;;;7.10;;
6566;SDS011;3317;43.994;22.878;2022-08-07T09:00:41;8.40;;;7.60;;
6566;SDS011;3317;43.994;22.878;2022-08-07T09:03:20;8.10;;;7.40;;
6566;SDS011;3317;43.994;22.878;2022-08-07T09:05:52;11.23;;;9.80;;
6566;SDS011;3317;43.994;22.878;2022-08-07T09:08:28;9.50;;;8.50;;
6566;SDS011;3317;43.994;22.878;2022-08-07T09:11:03;8.43;;;7.53;;
6566;SDS011;3317;43.994;22.878;2022-08-07T09:13:38;8.70;;;7.80;;
6566;SDS011;3317;43.994;22.878;2022-08-07T09:16:17;8.70;;;7.90;;
6566;SDS011;3317;43.994;22.878;2022-08-07T09:18:55;9.43;;;8.53;;
6566;SDS011;3317;43.994;22.878;2022-08-07T09:21:43;8.40;;;7.60;;
6566;SDS011;3317;43.994;22.878;2022-08-07T09:24:22;9.23;;;7.93;;
6566;SDS011;3317;43.994;22.878;2022-08-07T09:27:00;8.60;;;7.80;;
6566;SDS011;3317;43.994;22.878;2022-08-07T09:29:38;7.83;;;7.13;;
6566;SDS011;3317;43.994;22.878;2022-08-07T09:32:27;10.30;;;8.00;;
6566;SDS011;3317;43.994;22.878;2022-08-07T09:35:13;9.40;;;7.70;;
6566;SDS011;3317;43.994;22.878;2022-08-07T09:37:50;7.60;;;6.87;;
6566;SDS011;3317;43.994;22.878;2022-08-07T09:40:27;8.83;;;8.03;;
6566;SDS011;3317;43.994;22.878;2022-08-07T09:43:04;10.10;;;7.40;;
6566;SDS011;3317;43.994;22.878;2022-08-07T09:45:41;9.43;;;7.80;;
6566;SDS011;3317;43.994;22.878;2022-08-07T09:48:16;8.93;;;8.03;;
6566;SDS011;3317;43.994;22.878;2022-08-07T09:50:57;9.77;;;8.17;;
6566;SDS011;3317;43.994;22.878;2022-08-07T09:53:54;9.33;;;7.77;;
6566;SDS011;3317;43.994;22.878;2022-08-07T09:56:41;8.43;;;7.60;;
6566;SDS011;3317;43.994;22.878;2022-08-07T09:59:39;8.13;;;7.33;;
6566;SDS011;3317;43.994;22.878;2022-08-07T10:02:33;8.83;;;7.90;;
6566;SDS011;3317;43.994;22.878;2022-08-07T10:05:33;9.33;;;7.87;;
6566;SDS011;3317;43.994;22.878;2022-08-07T10:11:18;8.00;;;7.10;;
6566;SDS011;3317;43.994;22.878;2022-08-07T10:20:41;8.20;;;7.50;;
6566;SDS011;3317;43.994;22.878;2022-08-07T10:26:49;8.77;;;7.73;;
6566;SDS011;3317;43.994;22.878;2022-08-07T10:29:30;8.03;;;7.23;;
6566;SDS011;3317;43.994;22.878;2022-08-07T10:32:19;8.40;;;7.70;;
6566;SDS011;3317;43.994;22.878;2022-08-07T10:35:25;7.80;;;7.10;;
6566;SDS011;3317;43.994;22.878;2022-08-07T10:38:01;7.63;;;6.93;;
6566;SDS011;3317;43.994;22.878;2022-08-07T10:41:01;7.97;;;7.20;;
6566;SDS011;3317;43.994;22.878;2022-08-07T10:58:00;8.97;;;7.30;;
6566;SDS011;3317;43.994;22.878;2022-08-07T11:00:39;7.53;;;6.83;;
6566;SDS011;3317;43.994;22.878;2022-08-07T11:03:41;7.77;;;6.90;;
6566;SDS011;3317;43.994;22.878;2022-08-07T11:10:00;8.23;;;7.43;;
6566;SDS011;3317;43.994;22.878;2022-08-07T11:12:43;7.50;;;6.90;;
6566;SDS011;3317;43.994;22.878;2022-08-07T11:15:19;7.70;;;6.90;;
6566;SDS011;3317;43.994;22.878;2022-08-07T11:20:35;8.47;;;7.07;;
6566;SDS011;3317;43.994;22.878;2022-08-07T11:23:43;6.70;;;6.10;;
6566;SDS011;3317;43.994;22.878;2022-08-07T11:26:53;12.47;;;6.77;;
6566;SDS011;3317;43.994;22.878;2022-08-07T11:29:27;6.97;;;6.37;;
6566;SDS011;3317;43.994;22.878;2022-08-07T11:32:03;7.40;;;6.80;;
6566;SDS011;3317;43.994;22.878;2022-08-07T11:34:35;6.63;;;6.03;;
6566;SDS011;3317;43.994;22.878;2022-08-07T11:37:10;7.10;;;6.50;;
6566;SDS011;3317;43.994;22.878;2022-08-07T11:40:28;6.23;;;5.73;;
6566;SDS011;3317;43.994;22.878;2022-08-07T11:43:07;7.23;;;6.53;;
6566;SDS011;3317;43.994;22.878;2022-08-07T11:46:13;7.37;;;6.60;;
6566;SDS011;3317;43.994;22.878;2022-08-07T11:49:12;7.20;;;6.50;;
6566;SDS011;3317;43.994;22.878;2022-08-07T11:52:21;6.90;;;6.20;;
6566;SDS011;3317;43.994;22.878;2022-08-07T11:55:03;7.20;;;6.63;;
6566;SDS011;3317;43.994;22.878;2022-08-07T11:58:13;6.73;;;6.23;;
6566;SDS011;3317;43.994;22.878;2022-08-07T12:00:53;6.77;;;6.20;;
6566;SDS011;3317;43.994;22.878;2022-08-07T12:03:45;6.63;;;6.03;;
6566;SDS011;3317;43.994;22.878;2022-08-07T12:06:36;7.87;;;7.07;;
6566;SDS011;3317;43.994;22.878;2022-08-07T12:09:12;7.47;;;6.70;;
6566;SDS011;3317;43.994;22.878;2022-08-07T12:11:45;8.00;;;7.17;;
6566;SDS011;3317;43.994;22.878;2022-08-07T12:14:18;14.70;;;7.40;;
6566;SDS011;3317;43.994;22.878;2022-08-07T12:16:49;8.20;;;7.40;;
6566;SDS011;3317;43.994;22.878;2022-08-07T12:19:25;9.83;;;7.20;;
6566;SDS011;3317;43.994;22.878;2022-08-07T12:22:02;7.30;;;6.60;;
6566;SDS011;3317;43.994;22.878;2022-08-07T12:24:36;11.67;;;7.10;;
6566;SDS011;3317;43.994;22.878;2022-08-07T12:27:26;7.30;;;6.70;;
6566;SDS011;3317;43.994;22.878;2022-08-07T12:30:00;7.60;;;6.90;;
6566;SDS011;3317;43.994;22.878;2022-08-07T12:32:32;8.40;;;6.90;;
6566;SDS011;3317;43.994;22.878;2022-08-07T12:35:08;8.20;;;7.40;;
6566;SDS011;3317;43.994;22.878;2022-08-07T12:37:37;7.53;;;6.87;;
6566;SDS011;3317;43.994;22.878;2022-08-07T12:40:06;7.67;;;6.97;;
6566;SDS011;3317;43.994;22.878;2022-08-07T12:42:36;7.47;;;6.70;;
6566;SDS011;3317;43.994;22.878;2022-08-07T12:45:06;7.07;;;6.37;;
6566;SDS011;3317;43.994;22.878;2022-08-07T12:47:39;7.73;;;6.97;;
6566;SDS011;3317;43.994;22.878;2022-08-07T12:50:17;8.70;;;7.23;;
6566;SDS011;3317;43.994;22.878;2022-08-07T12:52:55;7.90;;;6.80;;
6566;SDS011;3317;43.994;22.878;2022-08-07T12:55:39;8.90;;;7.07;;
6566;SDS011;3317;43.994;22.878;2022-08-07T12:58:10;7.43;;;6.73;;
6566;SDS011;3317;43.994;22.878;2022-08-07T13:00:46;7.00;;;6.40;;
6566;SDS011;3317;43.994;22.878;2022-08-07T13:06:31;7.80;;;7.10;;
6566;SDS011;3317;43.994;22.878;2022-08-07T13:09:26;7.73;;;7.00;;
6566;SDS011;3317;43.994;22.878;2022-08-07T13:12:06;8.13;;;7.33;;
6566;SDS011;3317;43.994;22.878;2022-08-07T13:14:42;7.13;;;6.37;;
6566;SDS011;3317;43.994;22.878;2022-08-07T13:17:19;7.83;;;7.03;;
6566;SDS011;3317;43.994;22.878;2022-08-07T13:19:58;9.17;;;7.20;;
6566;SDS011;3317;43.994;22.878;2022-08-07T13:22:35;7.13;;;6.50;;
6566;SDS011;3317;43.994;22.878;2022-08-07T13:25:09;10.70;;;7.23;;
6566;SDS011;3317;43.994;22.878;2022-08-07T13:27:39;7.00;;;6.27;;
6566;SDS011;3317;43.994;22.878;2022-08-07T13:30:12;6.77;;;6.17;;
6566;SDS011;3317;43.994;22.878;2022-08-07T13:32:40;7.73;;;7.03;;
6566;SDS011;3317;43.994;22.878;2022-08-07T13:35:15;7.40;;;6.80;;
6566;SDS011;3317;43.994;22.878;2022-08-07T13:37:53;7.50;;;6.70;;
6566;SDS011;3317;43.994;22.878;2022-08-07T13:40:28;7.70;;;6.90;;
6566;SDS011;3317;43.994;22.878;2022-08-07T13:43:00;6.90;;;6.30;;
6566;SDS011;3317;43.994;22.878;2022-08-07T13:45:33;7.70;;;7.00;;
6566;SDS011;3317;43.994;22.878;2022-08-07T13:48:02;7.03;;;6.30;;
6566;SDS011;3317;43.994;22.878;2022-08-07T13:50:30;7.10;;;6.23;;
6566;SDS011;3317;43.994;22.878;2022-08-07T13:52:59;6.73;;;5.97;;
6566;SDS011;3317;43.994;22.878;2022-08-07T13:55:28;7.07;;;6.47;;
6566;SDS011;3317;43.994;22.878;2022-08-07T13:57:58;6.67;;;5.97;;
6566;SDS011;3317;43.994;22.878;2022-08-07T14:00:44;6.20;;;5.70;;
6566;SDS011;3317;43.994;22.878;2022-08-07T14:03:13;7.40;;;6.20;;
6566;SDS011;3317;43.994;22.878;2022-08-07T14:05:43;7.50;;;6.60;;
6566;SDS011;3317;43.994;22.878;2022-08-07T14:08:13;6.90;;;6.30;;
6566;SDS011;3317;43.994;22.878;2022-08-07T14:10:41;6.93;;;6.30;;
6566;SDS011;3317;43.994;22.878;2022-08-07T14:13:12;7.23;;;6.53;;
6566;SDS011;3317;43.994;22.878;2022-08-07T14:15:48;6.90;;;6.33;;
6566;SDS011;3317;43.994;22.878;2022-08-07T14:18:20;11.03;;;6.50;;
6566;SDS011;3317;43.994;22.878;2022-08-07T14:20:52;10.80;;;6.73;;
6566;SDS011;3317;43.994;22.878;2022-08-07T14:23:26;6.83;;;6.13;;
6566;SDS011;3317;43.994;22.878;2022-08-07T14:25:57;7.07;;;6.47;;
6566;SDS011;3317;43.994;22.878;2022-08-07T14:28:29;6.47;;;5.80;;
6566;SDS011;3317;43.994;22.878;2022-08-07T14:30:58;6.93;;;5.30;;
6566;SDS011;3317;43.994;22.878;2022-08-07T14:33:26;6.17;;;5.10;;
6566;SDS011;3317;43.994;22.878;2022-08-07T14:35:56;5.93;;;5.30;;
6566;SDS011;3317;43.994;22.878;2022-08-07T14:38:27;5.60;;;4.70;;
6566;SDS011;3317;43.994;22.878;2022-08-07T14:40:59;7.27;;;4.20;;
6566;SDS011;3317;43.994;22.878;2022-08-07T14:43:28;8.20;;;6.33;;
6566;SDS011;3317;43.994;22.878;2022-08-07T14:46:05;14.27;;;6.70;;
6566;SDS011;3317;43.994;22.878;2022-08-07T14:48:34;10.20;;;6.70;;
6566;SDS011;3317;43.994;22.878;2022-08-07T14:51:11;13.60;;;7.60;;
6566;SDS011;3317;43.994;22.878;2022-08-07T14:53:46;9.43;;;7.23;;
6566;SDS011;3317;43.994;22.878;2022-08-07T14:56:18;12.57;;;7.83;;
6566;SDS011;3317;43.994;22.878;2022-08-07T14:58:50;11.17;;;6.77;;
6566;SDS011;3317;43.994;22.878;2022-08-07T15:01:22;10.50;;;8.00;;
6566;SDS011;3317;43.994;22.878;2022-08-07T15:03:53;25.80;;;7.30;;
6566;SDS011;3317;43.994;22.878;2022-08-07T15:06:26;11.03;;;7.23;;
6566;SDS011;3317;43.994;22.878;2022-08-07T15:09:02;7.40;;;6.70;;
6566;SDS011;3317;43.994;22.878;2022-08-07T15:11:31;7.10;;;6.30;;
6566;SDS011;3317;43.994;22.878;2022-08-07T15:14:06;9.27;;;6.80;;
6566;SDS011;3317;43.994;22.878;2022-08-07T15:16:37;8.37;;;6.83;;
6566;SDS011;3317;43.994;22.878;2022-08-07T15:19:18;14.43;;;7.73;;
6566;SDS011;3317;43.994;22.878;2022-08-07T15:21:50;10.60;;;7.43;;
6566;SDS011;3317;43.994;22.878;2022-08-07T15:24:28;13.33;;;8.10;;
6566;SDS011;3317;43.994;22.878;2022-08-07T15:27:03;13.50;;;12.00;;
6566;SDS011;3317;43.994;22.878;2022-08-07T15:29:35;23.70;;;17.10;;
6566;SDS011;3317;43.994;22.878;2022-08-07T15:32:05;15.37;;;11.70;;
6566;SDS011;3317;43.994;22.878;2022-08-07T15:34:35;10.87;;;7.27;;
6566;SDS011;3317;43.994;22.878;2022-08-07T15:37:04;14.33;;;8.67;;
6566;SDS011;3317;43.994;22.878;2022-08-07T15:39:38;9.97;;;7.50;;
6566;SDS011;3317;43.994;22.878;2022-08-07T15:42:34;8.30;;;6.70;;
6566;SDS011;3317;43.994;22.878;2022-08-07T15:45:05;8.33;;;6.77;;
6566;SDS011;3317;43.994;22.878;2022-08-07T15:47:35;11.07;;;8.50;;
6566;SDS011;3317;43.994;22.878;2022-08-07T15:50:08;10.10;;;8.73;;
6566;SDS011;3317;43.994;22.878;2022-08-07T15:52:41;10.57;;;7.23;;
6566;SDS011;3317;43.994;22.878;2022-08-07T15:55:13;8.23;;;7.17;;
6566;SDS011;3317;43.994;22.878;2022-08-07T15:57:51;18.70;;;13.70;;
6566;SDS011;3317;43.994;22.878;2022-08-07T16:00:28;12.70;;;9.20;;
6566;SDS011;3317;43.994;22.878;2022-08-07T16:03:00;11.67;;;9.20;;
6566;SDS011;3317;43.994;22.878;2022-08-07T16:05:30;9.53;;;8.27;;
6566;SDS011;3317;43.994;22.878;2022-08-07T16:08:02;8.90;;;7.87;;
6566;SDS011;3317;43.994;22.878;2022-08-07T16:10:34;11.03;;;9.87;;
6566;SDS011;3317;43.994;22.878;2022-08-07T16:16:04;13.97;;;8.50;;
6566;SDS011;3317;43.994;22.878;2022-08-07T16:18:38;11.10;;;7.80;;
6566;SDS011;3317;43.994;22.878;2022-08-07T16:21:20;11.93;;;9.70;;
6566;SDS011;3317;43.994;22.878;2022-08-07T16:24:01;12.10;;;8.90;;
6566;SDS011;3317;43.994;22.878;2022-08-07T16:29:29;9.50;;;7.17;;
6566;SDS011;3317;43.994;22.878;2022-08-07T16:32:17;8.97;;;7.53;;
6566;SDS011;3317;43.994;22.878;2022-08-07T16:34:48;7.87;;;6.57;;
6566;SDS011;3317;43.994;22.878;2022-08-07T16:37:32;8.90;;;6.87;;
6566;SDS011;3317;43.994;22.878;2022-08-07T16:40:38;11.30;;;7.60;;
6566;SDS011;3317;43.994;22.878;2022-08-07T16:43:34;13.13;;;7.60;;
6566;SDS011;3317;43.994;22.878;2022-08-07T16:52:33;12.90;;;9.63;;
6566;SDS011;3317;43.994;22.878;2022-08-07T16:55:16;12.57;;;9.90;;
6566;SDS011;3317;43.994;22.878;2022-08-07T16:57:52;8.63;;;7.73;;